sensor_id;sensor_type;location;lat;lon;timestamp;temperature;humidity
75457;SHT31;64036;48.266;14.192;2023-03-23T00:00:38;9.43;70.02
75457;SHT31;64036;48.266;14.192;2023-03-23T00:03:13;9.40;70.08
75457;SHT31;64036;48.266;14.192;2023-03-23T00:05:39;9.36;70.03
75457;SHT31;64036;48.266;14.192;2023-03-23T00:08:15;9.32;70.17
75457;SHT31;64036;48.266;14.192;2023-03-23T00:10:47;9.27;70.32
75457;SHT31;64036;48.266;14.192;2023-03-23T00:13:24;9.24;70.46
75457;SHT31;64036;48.266;14.192;2023-03-23T00:15:51;9.20;70.75
75457;SHT31;64036;48.266;14.192;2023-03-23T00:18:20;9.16;70.82
75457;SHT31;64036;48.266;14.192;2023-03-23T00:20:49;9.15;70.86
75457;SHT31;64036;48.266;14.192;2023-03-23T00:23:23;9.11;70.87
75457;SHT31;64036;48.266;14.192;2023-03-23T00:25:58;9.09;70.91
75457;SHT31;64036;48.266;14.192;2023-03-23T00:28:42;9.09;71.10
75457;SHT31;64036;48.266;14.192;2023-03-23T00:31:19;9.09;71.15
75457;SHT31;64036;48.266;14.192;2023-03-23T00:33:45;9.09;71.22
75457;SHT31;64036;48.266;14.192;2023-03-23T00:36:16;9.04;71.32
75457;SHT31;64036;48.266;14.192;2023-03-23T00:38:45;9.02;71.58
75457;SHT31;64036;48.266;14.192;2023-03-23T00:41:12;9.02;71.61
75457;SHT31;64036;48.266;14.192;2023-03-23T00:43:40;9.00;71.69
75457;SHT31;64036;48.266;14.192;2023-03-23T00:46:15;9.00;71.66
75457;SHT31;64036;48.266;14.192;2023-03-23T00:48:45;8.98;71.69
75457;SHT31;64036;48.266;14.192;2023-03-23T00:51:14;8.95;71.98
75457;SHT31;64036;48.266;14.192;2023-03-23T00:53:43;8.92;72.08
75457;SHT31;64036;48.266;14.192;2023-03-23T00:56:13;8.93;72.13
75457;SHT31;64036;48.266;14.192;2023-03-23T00:58:39;8.91;72.24
75457;SHT31;64036;48.266;14.192;2023-03-23T01:01:25;8.88;72.12
75457;SHT31;64036;48.266;14.192;2023-03-23T01:03:51;8.85;72.11
75457;SHT31;64036;48.266;14.192;2023-03-23T01:06:26;8.86;72.13
75457;SHT31;64036;48.266;14.192;2023-03-23T01:08:56;8.86;72.19
75457;SHT31;64036;48.266;14.192;2023-03-23T01:11:28;8.86;72.31
75457;SHT31;64036;48.266;14.192;2023-03-23T01:14:09;8.85;72.27
75457;SHT31;64036;48.266;14.192;2023-03-23T01:16:41;8.81;72.30
75457;SHT31;64036;48.266;14.192;2023-03-23T01:19:09;8.77;72.46
75457;SHT31;64036;48.266;14.192;2023-03-23T01:21:48;8.74;72.49
75457;SHT31;64036;48.266;14.192;2023-03-23T01:24:26;8.68;72.49
75457;SHT31;64036;48.266;14.192;2023-03-23T01:27:01;8.59;72.51
75457;SHT31;64036;48.266;14.192;2023-03-23T01:29:32;8.52;72.75
75457;SHT31;64036;48.266;14.192;2023-03-23T01:32:01;8.47;73.06
75457;SHT31;64036;48.266;14.192;2023-03-23T01:34:51;8.41;73.19
75457;SHT31;64036;48.266;14.192;2023-03-23T01:37:25;8.37;73.35
75457;SHT31;64036;48.266;14.192;2023-03-23T01:40:04;8.40;73.41
75457;SHT31;64036;48.266;14.192;2023-03-23T01:42:40;8.40;73.34
75457;SHT31;64036;48.266;14.192;2023-03-23T01:51:15;8.43;73.65
75457;SHT31;64036;48.266;14.192;2023-03-23T01:54:14;8.43;73.65
75457;SHT31;64036;48.266;14.192;2023-03-23T01:57:10;8.43;73.66
75457;SHT31;64036;48.266;14.192;2023-03-23T01:59:55;8.42;73.82
75457;SHT31;64036;48.266;14.192;2023-03-23T02:02:31;8.45;73.92
75457;SHT31;64036;48.266;14.192;2023-03-23T02:05:01;8.48;74.18
75457;SHT31;64036;48.266;14.192;2023-03-23T02:07:30;8.51;74.19
75457;SHT31;64036;48.266;14.192;2023-03-23T02:09:57;8.52;74.18
75457;SHT31;64036;48.266;14.192;2023-03-23T02:12:25;8.49;74.19
75457;SHT31;64036;48.266;14.192;2023-03-23T02:14:56;8.45;74.31
75457;SHT31;64036;48.266;14.192;2023-03-23T02:20:06;8.44;74.45
75457;SHT31;64036;48.266;14.192;2023-03-23T02:29:22;8.47;74.57
75457;SHT31;64036;48.266;14.192;2023-03-23T02:33:14;8.48;74.49
75457;SHT31;64036;48.266;14.192;2023-03-23T02:35:43;8.48;74.44
75457;SHT31;64036;48.266;14.192;2023-03-23T02:38:20;8.49;74.52
75457;SHT31;64036;48.266;14.192;2023-03-23T02:40:57;8.49;74.62
75457;SHT31;64036;48.266;14.192;2023-03-23T02:43:40;8.48;74.60
75457;SHT31;64036;48.266;14.192;2023-03-23T02:46:14;8.47;74.61
75457;SHT31;64036;48.266;14.192;2023-03-23T02:48:41;8.45;74.55
75457;SHT31;64036;48.266;14.192;2023-03-23T02:51:10;8.41;74.61
75457;SHT31;64036;48.266;14.192;2023-03-23T02:53:39;8.39;74.72
75457;SHT31;64036;48.266;14.192;2023-03-23T02:56:18;8.39;74.76
75457;SHT31;64036;48.266;14.192;2023-03-23T02:58:46;8.39;74.81
75457;SHT31;64036;48.266;14.192;2023-03-23T03:03:58;8.34;74.80
75457;SHT31;64036;48.266;14.192;2023-03-23T03:06:37;8.32;74.96
75457;SHT31;64036;48.266;14.192;2023-03-23T03:09:33;8.31;74.90
75457;SHT31;64036;48.266;14.192;2023-03-23T03:15:38;8.24;75.09
75457;SHT31;64036;48.266;14.192;2023-03-23T03:22:04;8.28;75.00
75457;SHT31;64036;48.266;14.192;2023-03-23T03:24:33;8.31;74.90
75457;SHT31;64036;48.266;14.192;2023-03-23T03:27:09;8.29;74.96
75457;SHT31;64036;48.266;14.192;2023-03-23T03:29:41;8.31;74.92
75457;SHT31;64036;48.266;14.192;2023-03-23T03:32:14;8.33;74.91
75457;SHT31;64036;48.266;14.192;2023-03-23T03:34:46;8.35;74.89
75457;SHT31;64036;48.266;14.192;2023-03-23T03:37:14;8.36;74.84
75457;SHT31;64036;48.266;14.192;2023-03-23T03:39:44;8.39;74.80
75457;SHT31;64036;48.266;14.192;2023-03-23T03:42:10;8.41;74.76
75457;SHT31;64036;48.266;14.192;2023-03-23T03:44:47;8.40;74.68
75457;SHT31;64036;48.266;14.192;2023-03-23T03:47:18;8.38;74.78
75457;SHT31;64036;48.266;14.192;2023-03-23T03:49:44;8.40;74.79
75457;SHT31;64036;48.266;14.192;2023-03-23T03:52:13;8.40;74.70
75457;SHT31;64036;48.266;14.192;2023-03-23T03:54:44;8.41;74.74
75457;SHT31;64036;48.266;14.192;2023-03-23T03:57:12;8.41;74.73
75457;SHT31;64036;48.266;14.192;2023-03-23T03:59:40;8.40;74.64
75457;SHT31;64036;48.266;14.192;2023-03-23T04:02:09;8.38;74.68
75457;SHT31;64036;48.266;14.192;2023-03-23T04:04:45;8.36;74.89
75457;SHT31;64036;48.266;14.192;2023-03-23T04:07:29;8.36;74.90
75457;SHT31;64036;48.266;14.192;2023-03-23T04:10:14;8.38;74.84
75457;SHT31;64036;48.266;14.192;2023-03-23T04:12:49;8.38;74.73
75457;SHT31;64036;48.266;14.192;2023-03-23T04:15:22;8.38;74.70
75457;SHT31;64036;48.266;14.192;2023-03-23T04:17:48;8.38;74.71
75457;SHT31;64036;48.266;14.192;2023-03-23T04:20:17;8.38;74.71
75457;SHT31;64036;48.266;14.192;2023-03-23T04:22:44;8.39;74.69
75457;SHT31;64036;48.266;14.192;2023-03-23T04:25:16;8.36;74.70
75457;SHT31;64036;48.266;14.192;2023-03-23T04:27:55;8.33;74.62
75457;SHT31;64036;48.266;14.192;2023-03-23T04:30:29;8.29;74.60
75457;SHT31;64036;48.266;14.192;2023-03-23T04:32:58;8.25;74.70
75457;SHT31;64036;48.266;14.192;2023-03-23T04:35:26;8.22;74.66
75457;SHT31;64036;48.266;14.192;2023-03-23T04:37:56;8.22;74.64
75457;SHT31;64036;48.266;14.192;2023-03-23T04:40:29;8.20;74.76
75457;SHT31;64036;48.266;14.192;2023-03-23T04:42:55;8.17;74.74
75457;SHT31;64036;48.266;14.192;2023-03-23T04:45:22;8.14;74.80
75457;SHT31;64036;48.266;14.192;2023-03-23T04:47:51;8.10;74.94
75457;SHT31;64036;48.266;14.192;2023-03-23T04:50:35;8.07;75.18
75457;SHT31;64036;48.266;14.192;2023-03-23T04:53:06;8.05;75.30
75457;SHT31;64036;48.266;14.192;2023-03-23T04:55:46;8.04;75.30
75457;SHT31;64036;48.266;14.192;2023-03-23T04:58:17;8.06;75.27
75457;SHT31;64036;48.266;14.192;2023-03-23T05:00:44;8.08;75.20
75457;SHT31;64036;48.266;14.192;2023-03-23T05:03:25;8.09;75.18
75457;SHT31;64036;48.266;14.192;2023-03-23T05:06:03;8.10;75.09
75457;SHT31;64036;48.266;14.192;2023-03-23T05:08:37;8.12;75.06
75457;SHT31;64036;48.266;14.192;2023-03-23T05:11:14;8.13;75.01
75457;SHT31;64036;48.266;14.192;2023-03-23T05:13:40;8.11;75.19
75457;SHT31;64036;48.266;14.192;2023-03-23T05:16:06;8.10;75.33
75457;SHT31;64036;48.266;14.192;2023-03-23T05:18:35;8.12;75.37
75457;SHT31;64036;48.266;14.192;2023-03-23T05:21:02;8.14;75.47
75457;SHT31;64036;48.266;14.192;2023-03-23T05:23:30;8.12;75.58
75457;SHT31;64036;48.266;14.192;2023-03-23T05:26:11;8.11;75.67
75457;SHT31;64036;48.266;14.192;2023-03-23T05:28:39;8.15;75.64
75457;SHT31;64036;48.266;14.192;2023-03-23T05:31:06;8.21;75.55
75457;SHT31;64036;48.266;14.192;2023-03-23T05:33:41;8.27;75.43
75457;SHT31;64036;48.266;14.192;2023-03-23T05:36:09;8.28;75.32
75457;SHT31;64036;48.266;14.192;2023-03-23T05:38:43;8.26;75.33
75457;SHT31;64036;48.266;14.192;2023-03-23T05:41:21;8.24;75.38
75457;SHT31;64036;48.266;14.192;2023-03-23T05:43:48;8.25;75.43
75457;SHT31;64036;48.266;14.192;2023-03-23T05:46:18;8.30;75.34
75457;SHT31;64036;48.266;14.192;2023-03-23T05:49:03;8.35;75.25
75457;SHT31;64036;48.266;14.192;2023-03-23T05:51:32;8.40;75.29
75457;SHT31;64036;48.266;14.192;2023-03-23T05:53:58;8.47;75.23
75457;SHT31;64036;48.266;14.192;2023-03-23T05:56:28;8.56;75.13
75457;SHT31;64036;48.266;14.192;2023-03-23T05:59:07;8.65;75.09
75457;SHT31;64036;48.266;14.192;2023-03-23T06:01:35;8.72;75.10
75457;SHT31;64036;48.266;14.192;2023-03-23T06:04:01;8.81;74.99
75457;SHT31;64036;48.266;14.192;2023-03-23T06:06:30;8.90;74.89
75457;SHT31;64036;48.266;14.192;2023-03-23T06:08:57;8.99;74.78
75457;SHT31;64036;48.266;14.192;2023-03-23T06:11:24;9.07;74.62
75457;SHT31;64036;48.266;14.192;2023-03-23T06:13:54;9.19;74.42
75457;SHT31;64036;48.266;14.192;2023-03-23T06:16:23;9.30;74.22
75457;SHT31;64036;48.266;14.192;2023-03-23T06:18:49;9.43;74.16
75457;SHT31;64036;48.266;14.192;2023-03-23T06:21:17;9.56;74.10
75457;SHT31;64036;48.266;14.192;2023-03-23T06:23:47;9.68;73.87
75457;SHT31;64036;48.266;14.192;2023-03-23T06:26:13;9.77;73.80
75457;SHT31;64036;48.266;14.192;2023-03-23T06:28:41;9.88;73.97
75457;SHT31;64036;48.266;14.192;2023-03-23T06:31:08;9.99;73.75
75457;SHT31;64036;48.266;14.192;2023-03-23T06:33:37;10.08;73.50
75457;SHT31;64036;48.266;14.192;2023-03-23T06:36:06;10.11;73.34
75457;SHT31;64036;48.266;14.192;2023-03-23T06:38:36;10.16;73.27
75457;SHT31;64036;48.266;14.192;2023-03-23T06:41:04;10.26;73.26
75457;SHT31;64036;48.266;14.192;2023-03-23T06:43:30;10.31;73.27
75457;SHT31;64036;48.266;14.192;2023-03-23T06:46:01;10.38;73.37
75457;SHT31;64036;48.266;14.192;2023-03-23T06:48:27;10.48;73.34
75457;SHT31;64036;48.266;14.192;2023-03-23T06:50:53;10.61;73.12
75457;SHT31;64036;48.266;14.192;2023-03-23T06:53:19;10.69;72.88
75457;SHT31;64036;48.266;14.192;2023-03-23T06:55:46;10.76;72.72
75457;SHT31;64036;48.266;14.192;2023-03-23T06:58:14;10.89;72.63
75457;SHT31;64036;48.266;14.192;2023-03-23T07:00:40;11.05;72.19
75457;SHT31;64036;48.266;14.192;2023-03-23T07:03:06;11.21;71.81
75457;SHT31;64036;48.266;14.192;2023-03-23T07:05:33;11.33;71.64
75457;SHT31;64036;48.266;14.192;2023-03-23T07:08:00;11.60;71.38
75457;SHT31;64036;48.266;14.192;2023-03-23T07:10:29;12.06;70.79
75457;SHT31;64036;48.266;14.192;2023-03-23T07:12:56;12.64;69.77
75457;SHT31;64036;48.266;14.192;2023-03-23T07:15:22;13.27;68.60
75457;SHT31;64036;48.266;14.192;2023-03-23T07:17:48;13.96;67.23
75457;SHT31;64036;48.266;14.192;2023-03-23T07:20:13;14.95;65.54
75457;SHT31;64036;48.266;14.192;2023-03-23T07:22:40;16.05;63.54
75457;SHT31;64036;48.266;14.192;2023-03-23T07:25:06;17.15;61.70
75457;SHT31;64036;48.266;14.192;2023-03-23T07:27:32;18.20;59.53
75457;SHT31;64036;48.266;14.192;2023-03-23T07:29:58;19.01;56.20
75457;SHT31;64036;48.266;14.192;2023-03-23T07:32:24;19.91;54.08
75457;SHT31;64036;48.266;14.192;2023-03-23T07:34:50;20.96;53.03
75457;SHT31;64036;48.266;14.192;2023-03-23T07:37:17;21.99;50.36
75457;SHT31;64036;48.266;14.192;2023-03-23T07:39:42;22.87;47.40
75457;SHT31;64036;48.266;14.192;2023-03-23T07:42:08;23.73;45.70
75457;SHT31;64036;48.266;14.192;2023-03-23T07:44:34;24.60;43.85
75457;SHT31;64036;48.266;14.192;2023-03-23T07:47:00;25.13;42.08
75457;SHT31;64036;48.266;14.192;2023-03-23T07:49:27;24.99;41.34
75457;SHT31;64036;48.266;14.192;2023-03-23T07:51:52;24.66;41.57
75457;SHT31;64036;48.266;14.192;2023-03-23T07:54:18;24.27;42.06
75457;SHT31;64036;48.266;14.192;2023-03-23T07:56:43;24.23;42.08
75457;SHT31;64036;48.266;14.192;2023-03-23T07:59:10;24.08;41.95
75457;SHT31;64036;48.266;14.192;2023-03-23T08:01:38;23.60;41.93
75457;SHT31;64036;48.266;14.192;2023-03-23T08:04:04;22.95;41.95
75457;SHT31;64036;48.266;14.192;2023-03-23T08:06:31;22.35;42.40
75457;SHT31;64036;48.266;14.192;2023-03-23T08:08:59;21.70;42.69
75457;SHT31;64036;48.266;14.192;2023-03-23T08:11:25;21.10;43.18
75457;SHT31;64036;48.266;14.192;2023-03-23T08:13:52;20.52;43.67
75457;SHT31;64036;48.266;14.192;2023-03-23T08:16:18;19.99;44.28
75457;SHT31;64036;48.266;14.192;2023-03-23T08:18:45;19.85;44.91
75457;SHT31;64036;48.266;14.192;2023-03-23T08:21:11;20.60;44.90
75457;SHT31;64036;48.266;14.192;2023-03-23T08:23:38;21.87;43.21
75457;SHT31;64036;48.266;14.192;2023-03-23T08:26:04;23.03;41.46
75457;SHT31;64036;48.266;14.192;2023-03-23T08:28:35;23.97;40.47
75457;SHT31;64036;48.266;14.192;2023-03-23T08:31:06;24.73;38.83
75457;SHT31;64036;48.266;14.192;2023-03-23T08:33:35;25.42;37.95
75457;SHT31;64036;48.266;14.192;2023-03-23T08:36:01;25.91;36.94
75457;SHT31;64036;48.266;14.192;2023-03-23T08:38:28;26.19;36.72
75457;SHT31;64036;48.266;14.192;2023-03-23T08:40:59;26.29;35.94
75457;SHT31;64036;48.266;14.192;2023-03-23T08:43:27;26.04;35.33
75457;SHT31;64036;48.266;14.192;2023-03-23T08:45:53;26.33;34.65
75457;SHT31;64036;48.266;14.192;2023-03-23T08:48:19;26.67;34.18
75457;SHT31;64036;48.266;14.192;2023-03-23T08:50:46;26.98;33.79
75457;SHT31;64036;48.266;14.192;2023-03-23T08:53:12;26.92;33.55
75457;SHT31;64036;48.266;14.192;2023-03-23T08:55:37;26.73;33.51
75457;SHT31;64036;48.266;14.192;2023-03-23T08:58:04;27.08;33.26
75457;SHT31;64036;48.266;14.192;2023-03-23T09:00:30;26.91;32.71
75457;SHT31;64036;48.266;14.192;2023-03-23T09:02:57;26.26;32.78
75457;SHT31;64036;48.266;14.192;2023-03-23T09:05:24;25.74;32.61
75457;SHT31;64036;48.266;14.192;2023-03-23T09:07:52;25.84;33.09
75457;SHT31;64036;48.266;14.192;2023-03-23T09:10:23;26.11;32.95
75457;SHT31;64036;48.266;14.192;2023-03-23T09:12:49;26.06;32.99
75457;SHT31;64036;48.266;14.192;2023-03-23T09:15:17;26.11;32.96
75457;SHT31;64036;48.266;14.192;2023-03-23T09:17:44;25.68;33.23
75457;SHT31;64036;48.266;14.192;2023-03-23T09:20:14;25.09;34.50
75457;SHT31;64036;48.266;14.192;2023-03-23T09:22:44;24.83;34.68
75457;SHT31;64036;48.266;14.192;2023-03-23T09:25:12;24.45;35.55
75457;SHT31;64036;48.266;14.192;2023-03-23T09:27:41;24.11;35.77
75457;SHT31;64036;48.266;14.192;2023-03-23T09:30:10;23.62;35.93
75457;SHT31;64036;48.266;14.192;2023-03-23T09:32:39;23.18;36.59
75457;SHT31;64036;48.266;14.192;2023-03-23T09:35:08;22.81;36.82
75457;SHT31;64036;48.266;14.192;2023-03-23T09:37:37;22.28;37.66
75457;SHT31;64036;48.266;14.192;2023-03-23T09:40:05;22.02;38.91
75457;SHT31;64036;48.266;14.192;2023-03-23T09:45:47;21.50;39.90
75457;SHT31;64036;48.266;14.192;2023-03-23T09:48:44;21.30;40.02
75457;SHT31;64036;48.266;14.192;2023-03-23T09:54:26;20.63;41.54
75457;SHT31;64036;48.266;14.192;2023-03-23T09:57:28;20.65;41.76
75457;SHT31;64036;48.266;14.192;2023-03-23T10:00:14;20.69;41.47
75457;SHT31;64036;48.266;14.192;2023-03-23T10:02:49;20.81;41.74
75457;SHT31;64036;48.266;14.192;2023-03-23T10:05:27;21.13;41.43
75457;SHT31;64036;48.266;14.192;2023-03-23T10:07:54;21.52;41.11
75457;SHT31;64036;48.266;14.192;2023-03-23T10:10:21;21.79;40.51
75457;SHT31;64036;48.266;14.192;2023-03-23T10:16:24;22.18;39.38
75457;SHT31;64036;48.266;14.192;2023-03-23T10:21:52;22.39;38.77
75457;SHT31;64036;48.266;14.192;2023-03-23T10:24:30;22.55;38.61
75457;SHT31;64036;48.266;14.192;2023-03-23T10:29:52;23.03;38.08
75457;SHT31;64036;48.266;14.192;2023-03-23T10:32:41;22.84;38.40
75457;SHT31;64036;48.266;14.192;2023-03-23T10:35:17;22.83;38.74
75457;SHT31;64036;48.266;14.192;2023-03-23T10:37:50;22.91;38.61
75457;SHT31;64036;48.266;14.192;2023-03-23T10:40:23;22.80;38.24
75457;SHT31;64036;48.266;14.192;2023-03-23T10:42:54;22.73;38.96
75457;SHT31;64036;48.266;14.192;2023-03-23T10:45:23;23.21;38.87
75457;SHT31;64036;48.266;14.192;2023-03-23T10:50:52;23.76;38.05
75457;SHT31;64036;48.266;14.192;2023-03-23T10:53:26;23.98;37.76
75457;SHT31;64036;48.266;14.192;2023-03-23T10:55:58;24.17;36.80
75457;SHT31;64036;48.266;14.192;2023-03-23T10:58:29;24.28;37.24
75457;SHT31;64036;48.266;14.192;2023-03-23T11:01:00;24.41;36.68
75457;SHT31;64036;48.266;14.192;2023-03-23T11:05:59;24.41;35.86
75457;SHT31;64036;48.266;14.192;2023-03-23T11:08:32;24.17;36.12
75457;SHT31;64036;48.266;14.192;2023-03-23T11:11:19;24.18;36.14
75457;SHT31;64036;48.266;14.192;2023-03-23T11:13:56;24.15;36.19
75457;SHT31;64036;48.266;14.192;2023-03-23T11:16:28;23.93;36.58
75457;SHT31;64036;48.266;14.192;2023-03-23T11:18:57;23.96;36.15
75457;SHT31;64036;48.266;14.192;2023-03-23T11:21:25;23.98;36.00
75457;SHT31;64036;48.266;14.192;2023-03-23T11:23:58;24.08;35.92
75457;SHT31;64036;48.266;14.192;2023-03-23T11:29:10;24.53;35.76
75457;SHT31;64036;48.266;14.192;2023-03-23T11:31:43;24.64;34.57
75457;SHT31;64036;48.266;14.192;2023-03-23T11:34:16;24.97;33.93
75457;SHT31;64036;48.266;14.192;2023-03-23T11:36:53;24.99;33.67
75457;SHT31;64036;48.266;14.192;2023-03-23T11:39:31;24.94;34.08
75457;SHT31;64036;48.266;14.192;2023-03-23T11:42:01;24.68;34.55
75457;SHT31;64036;48.266;14.192;2023-03-23T11:44:44;24.51;34.66
75457;SHT31;64036;48.266;14.192;2023-03-23T11:50:29;24.23;35.24
75457;SHT31;64036;48.266;14.192;2023-03-23T11:53:19;24.29;35.66
75457;SHT31;64036;48.266;14.192;2023-03-23T11:58:48;24.48;35.56
75457;SHT31;64036;48.266;14.192;2023-03-23T12:01:21;24.59;35.98
75457;SHT31;64036;48.266;14.192;2023-03-23T12:09:38;24.89;34.86
75457;SHT31;64036;48.266;14.192;2023-03-23T12:13:14;24.73;34.84
75457;SHT31;64036;48.266;14.192;2023-03-23T12:18:25;25.29;34.47
75457;SHT31;64036;48.266;14.192;2023-03-23T12:21:24;25.50;35.43
75457;SHT31;64036;48.266;14.192;2023-03-23T12:27:02;25.92;34.36
75457;SHT31;64036;48.266;14.192;2023-03-23T12:33:01;26.10;33.22
75457;SHT31;64036;48.266;14.192;2023-03-23T12:57:25;25.14;33.70
75457;SHT31;64036;48.266;14.192;2023-03-23T13:03:05;24.98;34.20
75457;SHT31;64036;48.266;14.192;2023-03-23T13:05:49;24.78;34.54
75457;SHT31;64036;48.266;14.192;2023-03-23T13:08:28;24.63;34.50
75457;SHT31;64036;48.266;14.192;2023-03-23T13:11:01;24.63;34.97
75457;SHT31;64036;48.266;14.192;2023-03-23T13:13:44;24.73;34.93
75457;SHT31;64036;48.266;14.192;2023-03-23T13:16:30;24.76;34.78
75457;SHT31;64036;48.266;14.192;2023-03-23T13:19:08;24.63;34.56
75457;SHT31;64036;48.266;14.192;2023-03-23T13:22:07;24.60;35.32
75457;SHT31;64036;48.266;14.192;2023-03-23T13:24:45;24.59;35.30
75457;SHT31;64036;48.266;14.192;2023-03-23T13:27:26;24.55;35.53
75457;SHT31;64036;48.266;14.192;2023-03-23T13:29:56;24.53;35.70
75457;SHT31;64036;48.266;14.192;2023-03-23T13:32:37;24.59;35.91
75457;SHT31;64036;48.266;14.192;2023-03-23T13:35:11;24.57;35.58
75457;SHT31;64036;48.266;14.192;2023-03-23T13:37:47;24.51;35.76
75457;SHT31;64036;48.266;14.192;2023-03-23T13:40:24;24.42;35.26
75457;SHT31;64036;48.266;14.192;2023-03-23T13:42:57;24.33;36.04
75457;SHT31;64036;48.266;14.192;2023-03-23T13:53:30;23.87;36.53
75457;SHT31;64036;48.266;14.192;2023-03-23T13:56:19;23.86;37.00
75457;SHT31;64036;48.266;14.192;2023-03-23T13:59:12;23.80;37.17
75457;SHT31;64036;48.266;14.192;2023-03-23T14:10:35;23.71;37.78
75457;SHT31;64036;48.266;14.192;2023-03-23T14:16:02;23.63;38.31
75457;SHT31;64036;48.266;14.192;2023-03-23T14:18:35;23.72;38.43
75457;SHT31;64036;48.266;14.192;2023-03-23T14:21:04;23.78;38.63
75457;SHT31;64036;48.266;14.192;2023-03-23T14:23:36;23.81;38.45
75457;SHT31;64036;48.266;14.192;2023-03-23T14:26:05;23.74;37.64
75457;SHT31;64036;48.266;14.192;2023-03-23T14:28:41;23.70;37.33
75457;SHT31;64036;48.266;14.192;2023-03-23T14:31:28;23.65;37.56
75457;SHT31;64036;48.266;14.192;2023-03-23T14:33:55;23.61;37.77
75457;SHT31;64036;48.266;14.192;2023-03-23T14:36:29;23.56;37.79
75457;SHT31;64036;48.266;14.192;2023-03-23T14:39:18;23.55;36.98
75457;SHT31;64036;48.266;14.192;2023-03-23T14:42:06;23.57;35.95
75457;SHT31;64036;48.266;14.192;2023-03-23T14:44:45;23.57;36.05
75457;SHT31;64036;48.266;14.192;2023-03-23T14:47:16;23.50;36.17
75457;SHT31;64036;48.266;14.192;2023-03-23T14:49:52;23.35;36.45
75457;SHT31;64036;48.266;14.192;2023-03-23T14:52:25;23.18;36.64
75457;SHT31;64036;48.266;14.192;2023-03-23T14:55:06;23.05;36.76
75457;SHT31;64036;48.266;14.192;2023-03-23T14:57:40;22.94;36.65
75457;SHT31;64036;48.266;14.192;2023-03-23T15:00:18;22.85;36.58
75457;SHT31;64036;48.266;14.192;2023-03-23T15:02:55;22.77;36.78
75457;SHT31;64036;48.266;14.192;2023-03-23T15:05:26;22.69;36.80
75457;SHT31;64036;48.266;14.192;2023-03-23T15:08:10;22.65;36.72
75457;SHT31;64036;48.266;14.192;2023-03-23T15:10:40;22.63;36.34
75457;SHT31;64036;48.266;14.192;2023-03-23T15:13:10;22.59;36.71
75457;SHT31;64036;48.266;14.192;2023-03-23T15:15:37;22.53;36.49
75457;SHT31;64036;48.266;14.192;2023-03-23T15:18:03;22.47;36.40
75457;SHT31;64036;48.266;14.192;2023-03-23T15:20:50;22.40;36.51
75457;SHT31;64036;48.266;14.192;2023-03-23T15:23:16;22.31;36.78
75457;SHT31;64036;48.266;14.192;2023-03-23T15:25:49;22.25;37.04
75457;SHT31;64036;48.266;14.192;2023-03-23T15:28:18;22.18;37.19
75457;SHT31;64036;48.266;14.192;2023-03-23T15:30:56;22.09;37.29
75457;SHT31;64036;48.266;14.192;2023-03-23T15:33:26;22.00;37.63
75457;SHT31;64036;48.266;14.192;2023-03-23T15:35:53;21.90;37.41
75457;SHT31;64036;48.266;14.192;2023-03-23T15:40:52;21.67;37.56
75457;SHT31;64036;48.266;14.192;2023-03-23T15:43:25;21.57;37.71
75457;SHT31;64036;48.266;14.192;2023-03-23T15:46:05;21.48;38.00
75457;SHT31;64036;48.266;14.192;2023-03-23T15:48:48;21.44;38.29
75457;SHT31;64036;48.266;14.192;2023-03-23T15:51:20;21.43;38.45
75457;SHT31;64036;48.266;14.192;2023-03-23T15:53:50;21.44;38.47
75457;SHT31;64036;48.266;14.192;2023-03-23T15:56:17;21.43;38.48
75457;SHT31;64036;48.266;14.192;2023-03-23T15:58:44;21.43;38.89
75457;SHT31;64036;48.266;14.192;2023-03-23T16:01:15;21.44;39.13
75457;SHT31;64036;48.266;14.192;2023-03-23T16:04:29;21.41;39.40
75457;SHT31;64036;48.266;14.192;2023-03-23T16:06:42;21.37;39.29
75457;SHT31;64036;48.266;14.192;2023-03-23T16:09:12;21.29;39.29
75457;SHT31;64036;48.266;14.192;2023-03-23T16:11:45;21.19;39.15
75457;SHT31;64036;48.266;14.192;2023-03-23T16:14:11;21.11;39.06
75457;SHT31;64036;48.266;14.192;2023-03-23T16:16:38;21.01;38.95
75457;SHT31;64036;48.266;14.192;2023-03-23T16:19:05;20.95;39.54
75457;SHT31;64036;48.266;14.192;2023-03-23T16:21:32;20.88;39.23
75457;SHT31;64036;48.266;14.192;2023-03-23T16:23:58;20.80;39.42
75457;SHT31;64036;48.266;14.192;2023-03-23T16:26:23;20.69;39.74
75457;SHT31;64036;48.266;14.192;2023-03-23T16:28:49;20.59;39.86
75457;SHT31;64036;48.266;14.192;2023-03-23T16:31:15;20.50;39.94
75457;SHT31;64036;48.266;14.192;2023-03-23T16:33:40;20.42;40.02
75457;SHT31;64036;48.266;14.192;2023-03-23T16:36:06;20.35;40.33
75457;SHT31;64036;48.266;14.192;2023-03-23T16:38:35;20.25;40.73
75457;SHT31;64036;48.266;14.192;2023-03-23T16:41:01;20.16;40.74
75457;SHT31;64036;48.266;14.192;2023-03-23T16:43:27;20.08;40.56
75457;SHT31;64036;48.266;14.192;2023-03-23T16:45:54;19.98;40.78
75457;SHT31;64036;48.266;14.192;2023-03-23T16:48:21;19.85;41.28
75457;SHT31;64036;48.266;14.192;2023-03-23T16:50:47;19.71;41.46
75457;SHT31;64036;48.266;14.192;2023-03-23T16:53:13;19.59;41.74
75457;SHT31;64036;48.266;14.192;2023-03-23T16:55:38;19.47;41.93
75457;SHT31;64036;48.266;14.192;2023-03-23T16:58:05;19.38;42.08
75457;SHT31;64036;48.266;14.192;2023-03-23T17:00:31;19.31;42.09
75457;SHT31;64036;48.266;14.192;2023-03-23T17:02:57;19.23;42.27
75457;SHT31;64036;48.266;14.192;2023-03-23T17:05:24;19.11;42.50
75457;SHT31;64036;48.266;14.192;2023-03-23T17:07:53;19.00;42.84
75457;SHT31;64036;48.266;14.192;2023-03-23T17:10:20;18.89;43.34
75457;SHT31;64036;48.266;14.192;2023-03-23T17:12:53;18.77;43.75
75457;SHT31;64036;48.266;14.192;2023-03-23T17:15:20;18.66;43.99
75457;SHT31;64036;48.266;14.192;2023-03-23T17:17:48;18.53;44.34
75457;SHT31;64036;48.266;14.192;2023-03-23T17:20:14;18.40;44.61
75457;SHT31;64036;48.266;14.192;2023-03-23T17:22:40;18.28;44.81
75457;SHT31;64036;48.266;14.192;2023-03-23T17:25:06;18.17;44.99
75457;SHT31;64036;48.266;14.192;2023-03-23T17:27:33;18.05;45.59
75457;SHT31;64036;48.266;14.192;2023-03-23T17:30:00;17.92;45.99
75457;SHT31;64036;48.266;14.192;2023-03-23T17:32:27;17.81;46.32
75457;SHT31;64036;48.266;14.192;2023-03-23T17:34:53;17.69;46.53
75457;SHT31;64036;48.266;14.192;2023-03-23T17:37:19;17.60;46.71
75457;SHT31;64036;48.266;14.192;2023-03-23T17:39:46;17.52;47.07
75457;SHT31;64036;48.266;14.192;2023-03-23T17:42:12;17.43;47.23
75457;SHT31;64036;48.266;14.192;2023-03-23T17:44:37;17.37;47.62
75457;SHT31;64036;48.266;14.192;2023-03-23T17:47:03;17.30;47.82
75457;SHT31;64036;48.266;14.192;2023-03-23T17:49:29;17.24;48.10